createdAt,value
2017-10-17T00:00:49.436Z,101440
2017-10-17T00:03:17.569Z,101441
2017-10-17T00:05:45.667Z,101437
2017-10-17T00:08:13.748Z,101431
2017-10-17T00:10:41.963Z,101437
2017-10-17T00:13:10.128Z,101439
2017-10-17T00:15:38.251Z,101434
2017-10-17T00:18:06.492Z,101438
2017-10-17T00:20:35.360Z,101430
2017-10-17T00:23:04.210Z,101434
2017-10-17T00:25:32.352Z,101425
2017-10-17T00:28:00.459Z,101422
2017-10-17T00:30:31.099Z,101429
2017-10-17T00:33:01.611Z,101426
2017-10-17T00:35:38.432Z,101435
2017-10-17T00:38:07.517Z,101434
2017-10-17T00:40:35.675Z,101425
2017-10-17T00:43:03.768Z,101424
2017-10-17T00:45:31.920Z,101424
2017-10-17T00:48:00.063Z,101431
2017-10-17T00:50:28.155Z,101429
2017-10-17T00:52:56.351Z,101423
2017-10-17T00:55:24.472Z,101424
2017-10-17T00:57:52.571Z,101430
2017-10-17T01:00:20.728Z,101424
2017-10-17T01:02:48.818Z,101429
2017-10-17T01:05:16.983Z,101429
2017-10-17T01:07:45.083Z,101432
2017-10-17T01:10:13.224Z,101429
2017-10-17T01:12:41.340Z,101434
2017-10-17T01:15:09.471Z,101439
2017-10-17T01:17:37.643Z,101437
2017-10-17T01:20:07.554Z,101443
2017-10-17T01:22:35.736Z,101449
2017-10-17T01:25:03.855Z,101445
2017-10-17T01:27:32.924Z,101445
2017-10-17T01:30:01.052Z,101437
2017-10-17T01:32:30.096Z,101437
2017-10-17T01:34:58.176Z,101424
2017-10-17T01:37:27.323Z,101427
2017-10-17T01:40:19.912Z,101434
2017-10-17T01:42:48.077Z,101430
2017-10-17T01:45:17.716Z,101431
2017-10-17T01:47:45.810Z,101435
2017-10-17T01:50:25.538Z,101435
2017-10-17T01:53:15.240Z,101432
2017-10-17T01:55:43.359Z,101440
2017-10-17T01:58:11.476Z,101432
2017-10-17T02:00:40.345Z,101426
2017-10-17T02:03:08.443Z,101429
2017-10-17T02:05:37.372Z,101437
2017-10-17T02:08:22.189Z,101442
2017-10-17T02:10:56.831Z,101442
2017-10-17T02:13:24.931Z,101441
2017-10-17T02:15:53.023Z,101450
2017-10-17T02:18:27.646Z,101445
2017-10-17T02:20:58.260Z,101441
2017-10-17T02:23:28.093Z,101441
2017-10-17T02:25:59.692Z,101450
2017-10-17T02:28:34.995Z,101440
2017-10-17T02:31:03.275Z,101432
2017-10-17T02:33:32.253Z,101440
2017-10-17T02:36:00.412Z,101439
2017-10-17T02:38:28.545Z,101441
2017-10-17T02:40:59.215Z,101445
2017-10-17T02:43:30.967Z,101447
2017-10-17T02:46:02.035Z,101450
2017-10-17T02:48:38.408Z,101447
2017-10-17T02:51:06.589Z,101444
2017-10-17T02:53:34.762Z,101443
2017-10-17T02:56:02.923Z,101445
2017-10-17T02:58:31.040Z,101455
2017-10-17T03:00:59.147Z,101458
2017-10-17T03:03:33.880Z,101455
2017-10-17T03:06:01.964Z,101450
2017-10-17T03:08:30.103Z,101450
2017-10-17T03:10:58.267Z,101448
2017-10-17T03:13:37.727Z,101455
2017-10-17T03:16:06.800Z,101454
2017-10-17T03:18:35.664Z,101455
2017-10-17T03:21:15.070Z,101455
2017-10-17T03:23:50.805Z,101459
2017-10-17T03:26:18.960Z,101454
2017-10-17T03:28:50.245Z,101458
2017-10-17T03:31:23.280Z,101459
2017-10-17T03:33:55.903Z,101467
2017-10-17T03:36:35.373Z,101461
2017-10-17T03:39:04.951Z,101461
2017-10-17T03:41:34.922Z,101471
2017-10-17T03:47:57.713Z,101478
2017-10-17T03:50:29.582Z,101474
2017-10-17T03:56:24.898Z,101473
2017-10-17T03:59:06.693Z,101474
2017-10-17T04:01:34.840Z,101475
2017-10-17T04:04:11.252Z,101469
2017-10-17T04:06:49.692Z,101467
2017-10-17T04:09:17.791Z,101482
2017-10-17T04:11:45.919Z,101454
2017-10-17T04:14:22.927Z,101480
2017-10-17T04:17:03.546Z,101479
2017-10-17T04:19:47.083Z,101481
2017-10-17T04:25:24.508Z,101480
2017-10-17T04:31:06.348Z,101484
2017-10-17T04:33:54.824Z,101486
2017-10-17T04:39:20.721Z,101491
2017-10-17T04:45:49.214Z,101487
2017-10-17T04:52:03.465Z,101491
2017-10-17T04:54:50.619Z,101494
2017-10-17T04:57:22.451Z,101499
2017-10-17T05:00:14.987Z,101491
2017-10-17T05:02:58.300Z,101501
2017-10-17T05:05:32.579Z,101505
2017-10-17T05:11:29.383Z,101497
2017-10-17T05:14:09.960Z,101494
2017-10-17T05:16:49.280Z,101497
2017-10-17T05:19:55.683Z,101504
2017-10-17T05:22:38.466Z,101505
2017-10-17T05:25:24.114Z,101514
2017-10-17T05:31:31.669Z,101505
2017-10-17T05:34:10.919Z,101505
2017-10-17T05:36:51.639Z,101509
2017-10-17T05:39:19.773Z,101507
2017-10-17T05:41:48.012Z,101511
2017-10-17T05:47:42.260Z,101513
2017-10-17T05:50:11.093Z,101514
2017-10-17T05:52:44.604Z,101510
2017-10-17T05:55:12.680Z,101504
2017-10-17T05:57:40.778Z,101511
2017-10-17T06:00:08.944Z,101513
2017-10-17T06:02:37.022Z,101516
2017-10-17T06:05:05.144Z,101514
2017-10-17T06:07:33.244Z,101517
2017-10-17T06:10:01.327Z,101525
2017-10-17T06:12:29.447Z,101533
2017-10-17T06:14:57.542Z,101528
2017-10-17T06:17:25.663Z,101528
2017-10-17T06:19:53.758Z,101538
2017-10-17T06:22:21.948Z,101532
2017-10-17T06:24:50.080Z,101525
2017-10-17T06:27:18.223Z,101533
2017-10-17T06:29:46.327Z,101535
2017-10-17T06:32:15.187Z,101536
2017-10-17T06:34:43.283Z,101546
2017-10-17T06:37:12.232Z,101546
2017-10-17T06:39:40.331Z,101541
2017-10-17T06:42:08.423Z,101551
2017-10-17T06:44:36.560Z,101551
2017-10-17T06:47:04.655Z,101556
2017-10-17T06:49:32.744Z,101546
2017-10-17T06:52:01.615Z,101539
2017-10-17T06:54:29.777Z,101547
2017-10-17T06:56:57.888Z,101538
2017-10-17T06:59:26.743Z,101552
2017-10-17T07:01:54.868Z,101550
2017-10-17T07:04:22.971Z,101548
2017-10-17T07:06:51.078Z,101545
2017-10-17T07:09:19.197Z,101540
2017-10-17T07:11:47.291Z,101544
2017-10-17T07:14:15.659Z,101548
2017-10-17T07:16:43.756Z,101550
2017-10-17T07:19:11.900Z,101551
2017-10-17T07:21:40.084Z,101558
2017-10-17T07:24:08.181Z,101557
2017-10-17T07:26:36.289Z,101552
2017-10-17T07:29:04.392Z,101546
2017-10-17T07:31:32.525Z,101548
2017-10-17T07:34:01.372Z,101552
2017-10-17T07:36:29.748Z,101555
2017-10-17T07:38:57.836Z,101553
2017-10-17T07:41:25.968Z,101560
2017-10-17T07:43:54.072Z,101557
2017-10-17T07:46:22.172Z,101558
2017-10-17T07:48:50.283Z,101557
2017-10-17T07:51:18.375Z,101554
2017-10-17T07:53:46.483Z,101553
2017-10-17T07:56:14.609Z,101549
2017-10-17T07:58:42.705Z,101546
2017-10-17T08:01:10.805Z,101552
2017-10-17T08:03:38.956Z,101554
2017-10-17T08:06:07.040Z,101548
2017-10-17T08:08:35.151Z,101541
2017-10-17T08:11:03.240Z,101534
2017-10-17T08:13:31.352Z,101533
2017-10-17T08:15:59.454Z,101526
2017-10-17T08:18:29.305Z,101542
2017-10-17T08:20:57.419Z,101530
2017-10-17T08:23:25.518Z,101528
2017-10-17T08:25:54.439Z,101536
2017-10-17T08:28:22.551Z,101531
2017-10-17T08:30:50.640Z,101537
2017-10-17T08:33:18.756Z,101526
2017-10-17T08:35:46.843Z,101534
2017-10-17T08:38:14.956Z,101540
2017-10-17T08:40:43.047Z,101528
2017-10-17T08:43:11.153Z,101532
2017-10-17T08:45:39.244Z,101526
2017-10-17T08:48:07.328Z,101527
2017-10-17T08:50:35.438Z,101533
2017-10-17T08:53:03.560Z,101527
2017-10-17T08:55:32.690Z,101528
2017-10-17T08:58:01.543Z,101519
2017-10-17T09:00:29.647Z,101516
2017-10-17T09:02:57.731Z,101511
2017-10-17T09:05:25.850Z,101520
2017-10-17T09:07:53.964Z,101518
2017-10-17T09:10:22.044Z,101511
2017-10-17T09:12:50.253Z,101510
2017-10-17T09:15:18.439Z,101519
2017-10-17T09:17:46.522Z,101524
2017-10-17T09:20:15.099Z,101517
2017-10-17T09:22:43.189Z,101523
2017-10-17T09:25:11.300Z,101523
2017-10-17T09:27:40.164Z,101525
2017-10-17T09:30:08.270Z,101530
2017-10-17T09:32:37.272Z,101523
2017-10-17T09:35:05.361Z,101525
2017-10-17T09:37:33.472Z,101518
2017-10-17T09:40:01.565Z,101528
2017-10-17T09:42:29.743Z,101524
2017-10-17T09:44:57.869Z,101524
2017-10-17T09:47:26.996Z,101520
2017-10-17T09:49:55.079Z,101523
2017-10-17T09:52:23.227Z,101509
2017-10-17T09:54:51.323Z,101508
2017-10-17T09:57:20.199Z,101507
2017-10-17T09:59:48.309Z,101512
2017-10-17T10:02:16.415Z,101512
2017-10-17T10:04:44.517Z,101508
2017-10-17T10:07:12.624Z,101510
2017-10-17T10:09:40.742Z,101504
2017-10-17T10:12:08.860Z,101497
2017-10-17T10:14:36.962Z,101505
2017-10-17T10:17:05.064Z,101503
2017-10-17T10:19:33.164Z,101510
2017-10-17T10:22:01.283Z,101511
2017-10-17T10:24:29.419Z,101503
2017-10-17T10:26:57.552Z,101502
2017-10-17T10:29:25.655Z,101503
2017-10-17T10:31:54.528Z,101497
2017-10-17T10:34:22.640Z,101496
2017-10-17T10:36:50.731Z,101495
2017-10-17T10:39:18.831Z,101488
2017-10-17T10:41:46.956Z,101487
2017-10-17T10:44:15.177Z,101480
2017-10-17T10:46:43.275Z,101492
2017-10-17T10:49:11.372Z,101488
2017-10-17T10:51:40.221Z,101482
2017-10-17T10:54:08.332Z,101487
2017-10-17T10:56:37.180Z,101483
2017-10-17T10:59:05.297Z,101481
2017-10-17T11:01:33.373Z,101481
2017-10-17T11:04:02.240Z,101489
2017-10-17T11:06:30.374Z,101480
2017-10-17T11:08:58.477Z,101474
2017-10-17T11:11:26.571Z,101476
2017-10-17T11:13:55.431Z,101469
2017-10-17T11:16:23.531Z,101461
2017-10-17T11:18:52.397Z,101461
2017-10-17T11:21:20.483Z,101466
2017-10-17T11:23:48.608Z,101459
2017-10-17T11:26:16.705Z,101462
2017-10-17T11:28:44.820Z,101456
2017-10-17T11:31:13.683Z,101450
2017-10-17T11:33:41.779Z,101450
2017-10-17T11:36:10.989Z,101437
2017-10-17T11:38:39.103Z,101443
2017-10-17T11:41:25.319Z,101441
2017-10-17T11:43:53.428Z,101439
2017-10-17T11:46:21.552Z,101435
2017-10-17T11:48:49.664Z,101425
2017-10-17T11:51:17.829Z,101426
2017-10-17T11:53:45.923Z,101423
2017-10-17T11:56:14.032Z,101421
2017-10-17T11:58:42.150Z,101417
2017-10-17T12:01:10.254Z,101416
2017-10-17T12:03:38.326Z,101414
2017-10-17T12:06:06.420Z,101401
2017-10-17T12:08:35.414Z,101402
2017-10-17T12:11:03.544Z,101409
2017-10-17T12:13:31.650Z,101399
2017-10-17T12:15:59.745Z,101400
2017-10-17T12:18:27.865Z,101393
2017-10-17T12:20:55.978Z,101386
2017-10-17T12:23:24.067Z,101382
2017-10-17T12:25:52.180Z,101383
2017-10-17T12:28:21.034Z,101379
2017-10-17T12:30:49.131Z,101377
2017-10-17T12:33:17.310Z,101377
2017-10-17T12:35:46.163Z,101371
2017-10-17T12:38:14.291Z,101364
2017-10-17T12:40:42.400Z,101371
2017-10-17T12:43:10.734Z,101365
2017-10-17T12:45:38.848Z,101359
2017-10-17T12:48:08.000Z,101365
2017-10-17T12:50:36.133Z,101366
2017-10-17T12:53:05.165Z,101363
2017-10-17T12:55:33.295Z,101362
2017-10-17T12:58:02.444Z,101358
2017-10-17T13:00:30.536Z,101355
2017-10-17T13:02:59.432Z,101356
2017-10-17T13:05:28.448Z,101360
2017-10-17T13:07:57.610Z,101350
2017-10-17T13:10:25.719Z,101355
2017-10-17T13:12:54.731Z,101345
2017-10-17T13:15:22.850Z,101356
2017-10-17T13:17:50.960Z,101347
2017-10-17T13:20:19.075Z,101342
2017-10-17T13:22:47.160Z,101340
2017-10-17T13:25:15.252Z,101333
2017-10-17T13:27:43.381Z,101325
2017-10-17T13:30:11.478Z,101328
2017-10-17T13:32:39.569Z,101329
2017-10-17T13:35:07.693Z,101326
2017-10-17T13:37:35.793Z,101321
2017-10-17T13:40:03.883Z,101322
2017-10-17T13:42:32.008Z,101321
2017-10-17T13:45:00.101Z,101320
2017-10-17T13:47:28.231Z,101319
2017-10-17T13:49:56.320Z,101307
2017-10-17T13:52:24.432Z,101313
2017-10-17T13:54:52.514Z,101305
2017-10-17T13:57:21.705Z,101309
2017-10-17T13:59:49.823Z,101305
2017-10-17T14:02:17.912Z,101294
2017-10-17T14:04:46.057Z,101304
2017-10-17T14:07:14.167Z,101306
2017-10-17T14:09:42.279Z,101295
2017-10-17T14:12:11.427Z,101286
2017-10-17T14:14:39.577Z,101290
2017-10-17T14:17:07.677Z,101287
2017-10-17T14:19:35.805Z,101281
2017-10-17T14:22:03.909Z,101276
2017-10-17T14:24:32.040Z,101276
2017-10-17T14:27:00.143Z,101276
2017-10-17T14:29:28.260Z,101264
2017-10-17T14:31:56.397Z,101267
2017-10-17T14:34:24.512Z,101266
2017-10-17T14:36:52.631Z,101267
2017-10-17T14:39:20.743Z,101266
2017-10-17T14:41:48.882Z,101257
2017-10-17T14:44:18.091Z,101256
2017-10-17T14:46:46.165Z,101253
2017-10-17T14:49:14.271Z,101252
2017-10-17T14:51:43.150Z,101251
2017-10-17T14:54:12.087Z,101245
2017-10-17T14:56:40.234Z,101250
2017-10-17T14:59:08.352Z,101244
2017-10-17T15:01:36.469Z,101236
2017-10-17T15:04:05.352Z,101236
2017-10-17T15:06:34.232Z,101242
2017-10-17T15:09:02.328Z,101243
2017-10-17T15:11:30.466Z,101239
2017-10-17T15:13:58.555Z,101242
2017-10-17T15:16:26.659Z,101238
2017-10-17T15:18:54.768Z,101235
2017-10-17T15:21:22.869Z,101227
2017-10-17T15:23:51.013Z,101227
2017-10-17T15:26:19.120Z,101231
2017-10-17T15:28:47.267Z,101227
2017-10-17T15:31:16.287Z,101225
2017-10-17T15:33:44.396Z,101215
2017-10-17T15:36:12.516Z,101214
2017-10-17T15:38:40.658Z,101210
2017-10-17T15:41:08.731Z,101206
2017-10-17T15:43:36.852Z,101209
2017-10-17T15:46:04.979Z,101208
2017-10-17T15:48:33.075Z,101197
2017-10-17T15:51:01.166Z,101199
2017-10-17T15:53:30.059Z,101197
2017-10-17T15:55:58.915Z,101193
2017-10-17T15:58:27.045Z,101201
2017-10-17T16:00:55.135Z,101194
2017-10-17T16:03:23.232Z,101191
2017-10-17T16:05:51.349Z,101193
2017-10-17T16:08:20.204Z,101196
2017-10-17T16:10:48.348Z,101196
2017-10-17T16:13:16.455Z,101201
2017-10-17T16:15:45.478Z,101188
2017-10-17T16:18:14.368Z,101187
2017-10-17T16:20:43.234Z,101183
2017-10-17T16:23:11.341Z,101196
2017-10-17T16:25:39.469Z,101190
2017-10-17T16:28:08.600Z,101188
2017-10-17T16:30:36.701Z,101185
2017-10-17T16:33:04.807Z,101192
2017-10-17T16:35:33.984Z,101190
2017-10-17T16:38:02.097Z,101188
2017-10-17T16:40:30.209Z,101181
2017-10-17T16:42:58.300Z,101187
2017-10-17T16:45:27.343Z,101185
2017-10-17T16:47:55.468Z,101182
2017-10-17T16:50:23.587Z,101181
2017-10-17T16:52:51.707Z,101178
2017-10-17T16:55:19.813Z,101191
2017-10-17T16:57:47.909Z,101183
2017-10-17T17:00:16.008Z,101181
2017-10-17T17:02:44.144Z,101185
2017-10-17T17:05:12.271Z,101183
2017-10-17T17:07:40.368Z,101182
2017-10-17T17:10:08.460Z,101183
2017-10-17T17:12:36.602Z,101183
2017-10-17T17:15:04.687Z,101185
2017-10-17T17:17:32.788Z,101184
2017-10-17T17:20:00.930Z,101181
2017-10-17T17:22:29.035Z,101181
2017-10-17T17:24:58.838Z,101190
2017-10-17T17:27:26.928Z,101189
2017-10-17T17:29:55.810Z,101185
2017-10-17T17:32:23.932Z,101199
2017-10-17T17:34:52.039Z,101193
2017-10-17T17:37:20.175Z,101190
2017-10-17T17:39:49.493Z,101191
2017-10-17T17:42:17.592Z,101178
2017-10-17T17:44:45.708Z,101181
2017-10-17T17:47:13.819Z,101177
2017-10-17T17:49:41.941Z,101188
2017-10-17T17:52:10.043Z,101179
2017-10-17T17:54:38.155Z,101182
2017-10-17T17:57:06.319Z,101184
2017-10-17T17:59:34.432Z,101186
2017-10-17T18:02:02.563Z,101180
2017-10-17T18:04:30.671Z,101182
2017-10-17T18:06:58.814Z,101182
2017-10-17T18:09:26.899Z,101177
2017-10-17T18:11:55.015Z,101180
2017-10-17T18:14:23.113Z,101164
2017-10-17T18:16:51.216Z,101175
2017-10-17T18:19:19.320Z,101164
2017-10-17T18:21:47.418Z,101169
2017-10-17T18:24:15.496Z,101170
2017-10-17T18:26:43.620Z,101160
2017-10-17T18:29:12.545Z,101157
2017-10-17T18:31:40.735Z,101161
2017-10-17T18:34:08.843Z,101169
2017-10-17T18:36:37.555Z,101164
2017-10-17T18:39:05.688Z,101158
2017-10-17T18:41:34.844Z,101155
2017-10-17T18:44:02.961Z,101156
2017-10-17T18:46:31.080Z,101142
2017-10-17T18:48:59.180Z,101146
2017-10-17T18:51:27.281Z,101151
2017-10-17T18:53:55.412Z,101145
2017-10-17T18:56:23.508Z,101151
2017-10-17T18:58:51.674Z,101141
2017-10-17T19:01:19.758Z,101138
2017-10-17T19:03:47.887Z,101133
2017-10-17T19:06:16.025Z,101135
2017-10-17T19:08:44.249Z,101139
2017-10-17T19:11:12.408Z,101151
2017-10-17T19:13:40.520Z,101137
2017-10-17T19:16:08.612Z,101133
2017-10-17T19:18:36.836Z,101136
2017-10-17T19:21:04.943Z,101135
2017-10-17T19:23:33.048Z,101122
2017-10-17T19:26:01.152Z,101123
2017-10-17T19:28:29.320Z,101111
2017-10-17T19:30:57.520Z,101117
2017-10-17T19:33:25.611Z,101121
2017-10-17T19:35:53.769Z,101119
2017-10-17T19:38:21.859Z,101123
2017-10-17T19:40:49.952Z,101122
2017-10-17T19:43:18.099Z,101118
2017-10-17T19:45:46.246Z,101115
2017-10-17T19:48:14.393Z,101118
2017-10-17T19:50:43.244Z,101117
2017-10-17T19:53:11.357Z,101110
2017-10-17T19:55:39.455Z,101109
2017-10-17T19:58:07.576Z,101110
2017-10-17T20:00:35.698Z,101095
2017-10-17T20:03:03.844Z,101103
2017-10-17T20:05:32.712Z,101107
2017-10-17T20:08:00.807Z,101107
2017-10-17T20:10:29.697Z,101106
2017-10-17T20:12:58.581Z,101106
2017-10-17T20:15:27.456Z,101102
2017-10-17T20:17:55.585Z,101102
2017-10-17T20:20:23.708Z,101095
2017-10-17T20:22:51.798Z,101092
2017-10-17T20:25:19.926Z,101102
2017-10-17T20:27:48.063Z,101085
2017-10-17T20:30:16.171Z,101083
2017-10-17T20:32:45.204Z,101084
2017-10-17T20:35:13.369Z,101079
2017-10-17T20:37:41.487Z,101092
2017-10-17T20:40:09.589Z,101089
2017-10-17T20:42:37.852Z,101080
2017-10-17T20:45:06.121Z,101077
2017-10-17T20:47:34.205Z,101074
2017-10-17T20:50:02.299Z,101072
2017-10-17T20:52:30.397Z,101060
2017-10-17T20:54:58.497Z,101061
2017-10-17T20:57:26.632Z,101065
2017-10-17T20:59:55.910Z,101066
2017-10-17T21:02:24.206Z,101065
2017-10-17T21:04:53.076Z,101069
2017-10-17T21:07:21.179Z,101070
2017-10-17T21:09:49.331Z,101058
2017-10-17T21:19:02.866Z,101056
2017-10-17T21:21:31.033Z,101056
2017-10-17T21:23:59.115Z,101045
2017-10-17T21:26:27.234Z,101050
2017-10-17T21:28:55.312Z,101053
2017-10-17T21:31:23.429Z,101049
2017-10-17T21:33:51.512Z,101052
2017-10-17T21:36:20.443Z,101037
2017-10-17T21:38:48.569Z,101043
2017-10-17T21:41:16.655Z,101040
2017-10-17T21:43:44.761Z,101037
2017-10-17T21:46:12.891Z,101032
2017-10-17T21:48:40.996Z,101027
2017-10-17T21:51:09.101Z,101027
2017-10-17T21:53:37.950Z,101016
2017-10-17T21:56:06.195Z,101021
2017-10-17T21:58:34.278Z,101019
2017-10-17T22:01:03.329Z,101021
2017-10-17T22:03:32.684Z,101012
2017-10-17T22:06:00.768Z,101014
2017-10-17T22:08:28.876Z,101016
2017-10-17T22:10:57.779Z,101007
2017-10-17T22:13:25.891Z,101001
2017-10-17T22:15:53.986Z,100995
2017-10-17T22:18:22.073Z,101006
2017-10-17T22:20:50.185Z,101002
2017-10-17T22:23:18.291Z,101003
2017-10-17T22:25:46.401Z,101001
2017-10-17T22:28:14.514Z,100993
2017-10-17T22:30:42.608Z,100994
2017-10-17T22:33:11.133Z,100992
2017-10-17T22:35:40.002Z,100985
2017-10-17T22:38:08.104Z,100981
2017-10-17T22:40:36.208Z,100982
2017-10-17T22:43:04.296Z,100987
2017-10-17T22:45:32.396Z,100983
2017-10-17T22:48:00.528Z,100983
2017-10-17T22:50:28.627Z,100970
2017-10-17T22:52:57.191Z,100968
2017-10-17T22:55:25.301Z,100977
2017-10-17T22:57:53.557Z,100967
2017-10-17T23:00:21.679Z,100960
2017-10-17T23:02:49.971Z,100970
2017-10-17T23:05:18.107Z,100957
2017-10-17T23:07:46.973Z,100957
2017-10-17T23:10:15.093Z,100953
2017-10-17T23:12:43.331Z,100951
2017-10-17T23:15:12.740Z,100944
2017-10-17T23:17:58.514Z,100943
2017-10-17T23:20:36.291Z,100935
2017-10-17T23:23:04.368Z,100933
2017-10-17T23:25:32.507Z,100924
2017-10-17T23:28:00.899Z,100932
2017-10-17T23:30:29.271Z,100925
2017-10-17T23:32:59.032Z,100924
2017-10-17T23:35:27.424Z,100927
2017-10-17T23:37:56.395Z,100928
2017-10-17T23:40:25.507Z,100925
2017-10-17T23:42:54.387Z,100920
2017-10-17T23:45:22.476Z,100918
2017-10-17T23:47:51.331Z,100918
2017-10-17T23:50:19.500Z,100916
2017-10-17T23:52:47.703Z,100916
2017-10-17T23:55:15.805Z,100913
2017-10-17T23:57:43.899Z,100908
